Time;durP1;ratioP1;P1;durP2;ratioP2;P2;SDS_P1;SDS_P2;PMS_P1;PMS_P2;Temp;Humidity;BMP_temperature;BMP_pressure;BME280_temperature;BME280_humidity;BME280_pressure;Samples;Min_cycle;Max_cycle;Signal;HPM_P1;HPM_P2
2021/10/21 00:06:45;;;;;;;4.83;1.70;;;14.20;99.90;;;;;;5032352;28;20220;-91
2021/10/21 00:09:23;;;;;;;11.33;7.50;;;14.20;99.90;;;;;;5023174;28;20216;-92
2021/10/21 00:14:56;;;;;;;8.93;4.73;;;14.10;99.90;;;;;;5012570;28;20240;-91
2021/10/21 00:17:46;;;;;;;10.63;7.23;;;14.10;99.90;;;;;;5014913;28;20198;-90
2021/10/21 00:20:27;;;;;;;6.50;2.40;;;14.10;99.90;;;;;;4981710;28;20269;-91
2021/10/21 00:23:10;;;;;;;3.33;1.70;;;14.00;99.90;;;;;;4981142;28;20238;-93
2021/10/21 00:25:45;;;;;;;12.53;7.13;;;14.00;99.90;;;;;;4991827;28;20283;-92
2021/10/21 00:28:21;;;;;;;5.40;3.30;;;14.00;99.90;;;;;;4990188;28;20218;-91
2021/10/21 00:30:56;;;;;;;3.83;1.97;;;13.90;99.90;;;;;;4993978;28;20210;-91
2021/10/21 00:33:31;;;;;;;3.13;1.80;;;13.90;99.90;;;;;;4999778;28;20216;-91
2021/10/21 00:36:03;;;;;;;68.70;26.37;;;13.80;99.90;;;;;;5001015;28;20203;-89
2021/10/21 00:38:38;;;;;;;5.70;1.93;;;13.80;99.90;;;;;;5012562;28;20238;-91
2021/10/21 00:41:10;;;;;;;2.90;1.40;;;13.80;99.90;;;;;;5009583;28;20628;-93
2021/10/21 00:43:45;;;;;;;1.90;1.17;;;13.80;99.90;;;;;;5017680;28;20186;-92
2021/10/21 00:46:20;;;;;;;2.80;1.20;;;13.70;99.90;;;;;;5009778;28;20206;-91
2021/10/21 00:48:54;;;;;;;3.43;1.27;;;13.70;99.90;;;;;;5011485;28;20218;-92
2021/10/21 00:51:31;;;;;;;3.60;1.50;;;13.70;99.90;;;;;;5014877;28;20198;-92
2021/10/21 00:54:16;;;;;;;3.47;1.43;;;13.60;99.90;;;;;;5017797;28;20209;-92
2021/10/21 00:57:04;;;;;;;2.90;1.43;;;13.50;99.90;;;;;;4998852;28;20254;-96
2021/10/21 00:59:38;;;;;;;4.53;1.50;;;13.50;99.90;;;;;;5013427;28;20221;-96
2021/10/21 01:02:12;;;;;;;5.03;1.30;;;13.40;99.90;;;;;;5001516;28;20221;-96
2021/10/21 01:04:44;;;;;;;2.83;1.27;;;13.30;99.90;;;;;;5008166;28;20187;-96
2021/10/21 01:07:25;;;;;;;2.40;1.50;;;13.30;99.90;;;;;;5000832;28;20223;-95
2021/10/21 01:10:14;;;;;;;6.17;1.83;;;13.30;99.90;;;;;;4995972;28;20207;-96
2021/10/21 01:12:46;;;;;;;2.90;1.60;;;13.20;99.90;;;;;;4980182;28;20218;-96
2021/10/21 01:15:21;;;;;;;3.50;1.70;;;13.10;99.90;;;;;;5014153;28;20202;-96
2021/10/21 01:17:55;;;;;;;3.73;1.60;;;13.10;99.90;;;;;;5016330;28;20269;-96
2021/10/21 01:20:32;;;;;;;3.77;1.87;;;13.10;99.90;;;;;;5012888;28;20300;-96
2021/10/21 01:23:04;;;;;;;3.57;1.80;;;13.00;99.90;;;;;;4999146;28;20665;-96
2021/10/21 01:25:36;;;;;;;3.53;1.90;;;12.90;99.90;;;;;;4998239;28;20210;-96
2021/10/21 01:28:08;;;;;;;4.13;1.93;;;12.90;99.90;;;;;;5004546;28;20202;-96
2021/10/21 01:30:40;;;;;;;3.93;1.90;;;12.90;99.90;;;;;;5013293;28;20244;-96
2021/10/21 01:33:13;;;;;;;3.37;1.77;;;12.80;99.90;;;;;;5004863;28;20206;-95
2021/10/21 01:35:48;;;;;;;3.33;1.70;;;12.80;99.90;;;;;;5009844;28;20206;-95
2021/10/21 01:38:20;;;;;;;2.30;1.37;;;12.80;99.90;;;;;;4997127;28;20205;-94
2021/10/21 01:40:51;;;;;;;3.17;1.37;;;12.70;99.90;;;;;;5000669;28;20203;-95
2021/10/21 01:43:23;;;;;;;2.20;1.20;;;12.60;99.90;;;;;;5238784;23;20237;-95
2021/10/21 01:48:56;;;;;;;2.90;1.33;;;12.50;99.90;;;;;;5011899;28;20206;-95
2021/10/21 01:52:09;;;;;;;3.13;1.50;;;12.50;99.90;;;;;;4996146;28;20214;-94
2021/10/21 01:54:50;;;;;;;2.23;1.33;;;12.40;99.90;;;;;;4998437;28;20199;-94
2021/10/21 01:57:26;;;;;;;2.47;1.33;;;12.30;99.90;;;;;;5014859;28;20204;-94
2021/10/21 02:00:04;;;;;;;1.60;1.13;;;12.20;99.90;;;;;;5014100;28;20234;-94
2021/10/21 02:02:38;;;;;;;3.67;1.47;;;12.20;99.90;;;;;;5006279;28;20263;-94
2021/10/21 02:05:13;;;;;;;1.83;1.00;;;12.10;99.90;;;;;;4995781;28;20211;-95
2021/10/21 02:07:46;;;;;;;2.03;1.00;;;12.10;99.90;;;;;;4994407;28;20588;-94
2021/10/21 02:10:22;;;;;;;4.03;1.37;;;12.00;99.90;;;;;;5009126;28;20226;-95
2021/10/21 02:12:57;;;;;;;2.37;1.70;;;12.00;99.90;;;;;;4970501;28;20203;-95
2021/10/21 02:18:16;;;;;;;2.00;1.10;;;11.80;99.90;;;;;;4994601;28;20622;-93
2021/10/21 02:20:48;;;;;;;1.97;1.10;;;11.80;99.90;;;;;;5000594;28;20549;-95
2021/10/21 02:23:19;;;;;;;1.23;1.00;;;11.70;99.90;;;;;;4972885;28;20258;-95
2021/10/21 02:25:57;;;;;;;4.77;1.57;;;11.70;99.90;;;;;;4991108;28;20195;-94
2021/10/21 02:44:02;;;;;;;1.77;1.03;;;11.40;99.90;;;;;;4992535;28;20225;-95
2021/10/21 02:46:33;;;;;;;3.40;1.20;;;11.40;99.90;;;;;;4993658;28;20238;-95
2021/10/21 02:49:06;;;;;;;6.07;1.70;;;11.30;99.90;;;;;;4995873;28;20261;-95
2021/10/21 02:54:23;;;;;;;1.30;1.13;;;11.30;99.90;;;;;;5011803;28;20210;-95
2021/10/21 02:56:59;;;;;;;1.50;0.93;;;11.20;99.90;;;;;;4975125;28;20761;-95
2021/10/21 02:59:35;;;;;;;1.33;1.13;;;11.10;99.90;;;;;;4974150;28;20231;-96
2021/10/21 03:02:08;;;;;;;2.87;1.10;;;11.10;99.90;;;;;;4980044;28;20288;-95
2021/10/21 03:04:42;;;;;;;4.13;1.13;;;11.10;99.90;;;;;;5001092;28;20207;-95
2021/10/21 03:07:14;;;;;;;2.43;1.20;;;11.00;99.90;;;;;;4993151;28;20194;-96
2021/10/21 03:09:52;;;;;;;2.90;1.27;;;11.00;99.90;;;;;;4997115;28;20223;-95
2021/10/21 03:31:14;;;;;;;2.57;0.90;;;10.70;99.90;;;;;;5041051;28;20220;-93
2021/10/21 03:33:58;;;;;;;3.70;1.10;;;10.70;99.90;;;;;;5048095;28;20729;-94
2021/10/21 03:36:35;;;;;;;1.83;1.10;;;10.70;99.90;;;;;;5055305;28;20219;-95
2021/10/21 03:39:09;;;;;;;4.87;1.17;;;10.70;99.90;;;;;;5055140;28;20721;-94
2021/10/21 03:44:37;;;;;;;1.53;0.93;;;10.80;99.90;;;;;;5055410;28;20209;-94
2021/10/21 03:47:11;;;;;;;4.03;1.17;;;10.80;99.90;;;;;;5057768;28;20185;-94
2021/10/21 03:49:43;;;;;;;1.17;1.07;;;10.80;99.90;;;;;;5046586;28;20215;-95
2021/10/21 03:52:17;;;;;;;3.10;1.70;;;10.70;99.90;;;;;;5036857;28;20204;-94
2021/10/21 03:54:51;;;;;;;2.10;1.60;;;10.70;99.90;;;;;;5021269;28;20194;-95
2021/10/21 03:57:23;;;;;;;3.33;1.77;;;10.70;99.90;;;;;;5023073;28;20220;-95
2021/10/21 03:59:57;;;;;;;3.07;2.03;;;10.80;99.90;;;;;;5022350;28;20233;-94
2021/10/21 04:02:31;;;;;;;4.23;2.80;;;10.90;99.90;;;;;;5037329;28;20261;-94
2021/10/21 04:05:04;;;;;;;2.87;1.50;;;10.90;99.90;;;;;;5304496;23;20275;-95
2021/10/21 04:10:09;;;;;;;2.30;1.67;;;11.00;99.90;;;;;;5038435;28;20316;-96
2021/10/21 04:12:45;;;;;;;2.83;1.23;;;11.00;99.90;;;;;;5039323;28;20248;-94
2021/10/21 04:19:02;;;;;;;3.10;1.10;;;11.20;99.90;;;;;;5034424;28;20667;-95
2021/10/21 04:21:55;;;;;;;2.57;1.17;;;11.30;99.90;;;;;;5033116;28;20296;-95
2021/10/21 04:24:27;;;;;;;2.00;1.40;;;11.30;99.90;;;;;;5036529;28;20201;-95
2021/10/21 04:26:59;;;;;;;2.17;1.33;;;11.40;99.90;;;;;;5036000;28;20197;-95
2021/10/21 04:29:30;;;;;;;2.70;1.47;;;11.40;99.90;;;;;;5238294;22;20240;-96
2021/10/21 04:32:02;;;;;;;4.13;1.10;;;11.40;99.90;;;;;;5046682;28;20215;-96
2021/10/21 04:37:04;;;;;;;2.33;1.83;;;11.40;99.90;;;;;;5037337;28;20249;-94
2021/10/21 04:39:36;;;;;;;2.03;1.33;;;11.40;99.90;;;;;;5030764;28;20201;-95
2021/10/21 04:42:15;;;;;;;2.00;1.27;;;11.50;99.90;;;;;;5030780;28;20224;-95
2021/10/21 04:44:49;;;;;;;2.87;1.67;;;11.40;99.90;;;;;;5032355;28;20213;-94
2021/10/21 04:47:21;;;;;;;4.20;1.70;;;11.50;99.90;;;;;;5033975;28;20264;-94
2021/10/21 04:49:54;;;;;;;4.27;2.23;;;11.50;99.90;;;;;;5031973;28;20202;-96
2021/10/21 04:52:27;;;;;;;2.90;1.60;;;11.50;99.90;;;;;;5030818;28;20209;-95
2021/10/21 04:55:01;;;;;;;3.10;1.83;;;11.50;99.90;;;;;;5030517;28;20212;-96
2021/10/21 04:57:33;;;;;;;3.07;1.60;;;11.40;99.90;;;;;;5029702;28;20233;-94
2021/10/21 05:00:05;;;;;;;4.83;1.50;;;11.40;99.90;;;;;;5027248;28;20233;-95
2021/10/21 05:02:36;;;;;;;8.40;1.50;;;11.40;99.90;;;;;;5023030;28;20210;-96
2021/10/21 05:05:11;;;;;;;4.00;1.37;;;11.30;99.90;;;;;;5026903;28;20210;-95
2021/10/21 05:07:49;;;;;;;3.10;1.30;;;11.20;99.90;;;;;;5016482;28;20289;-95
2021/10/21 05:10:24;;;;;;;2.07;1.30;;;11.10;99.90;;;;;;5004502;28;20213;-96
2021/10/21 05:12:58;;;;;;;4.60;2.03;;;11.10;99.90;;;;;;5008171;28;20224;-96
2021/10/21 05:23:33;;;;;;;5.63;1.50;;;11.00;99.90;;;;;;5036853;28;20220;-96
2021/10/21 05:26:08;;;;;;;3.00;1.47;;;11.00;99.90;;;;;;5037656;28;20197;-96
2021/10/21 05:28:42;;;;;;;2.90;1.43;;;11.00;99.90;;;;;;5021424;28;20262;-96
2021/10/21 05:31:13;;;;;;;3.27;1.60;;;11.00;99.90;;;;;;5117928;23;20209;-95
2021/10/21 05:34:17;;;;;;;3.90;1.47;;;10.90;99.90;;;;;;5030594;28;20210;-96
2021/10/21 05:36:49;;;;;;;2.10;1.10;;;11.00;99.90;;;;;;5021846;28;20228;-94
2021/10/21 05:39:24;;;;;;;2.33;1.57;;;11.00;99.90;;;;;;5022795;28;20300;-94
2021/10/21 05:41:55;;;;;;;1.80;1.10;;;11.00;99.90;;;;;;5022140;28;20278;-94
2021/10/21 05:44:27;;;;;;;4.40;1.70;;;10.90;99.90;;;;;;5021673;28;20237;-93
2021/10/21 05:46:59;;;;;;;5.53;1.70;;;10.90;99.90;;;;;;5071852;22;20320;-94
2021/10/21 05:49:32;;;;;;;1.60;1.50;;;10.80;99.90;;;;;;5004624;28;20256;-95
2021/10/21 05:52:05;;;;;;;2.57;1.50;;;10.80;99.90;;;;;;5021920;28;20232;-96
2021/10/21 05:54:42;;;;;;;2.60;1.50;;;10.90;99.90;;;;;;5003587;28;20264;-95
2021/10/21 05:57:14;;;;;;;3.30;1.40;;;10.90;99.90;;;;;;5004315;28;20209;-96
2021/10/21 05:59:46;;;;;;;6.10;1.20;;;10.90;99.90;;;;;;5021122;28;20282;-96
2021/10/21 06:02:18;;;;;;;3.57;1.23;;;10.90;99.90;;;;;;5002351;28;20201;-95
2021/10/21 06:04:53;;;;;;;3.10;1.10;;;10.90;99.90;;;;;;5019752;28;20648;-94
2021/10/21 06:07:25;;;;;;;3.97;1.33;;;10.90;99.90;;;;;;5021729;28;20212;-95
2021/10/21 06:10:02;;;;;;;1.57;1.00;;;10.90;99.90;;;;;;5006961;28;20226;-95
2021/10/21 06:12:38;;;;;;;2.10;1.27;;;10.90;99.90;;;;;;5001274;28;20285;-96
2021/10/21 06:15:12;;;;;;;1.77;1.10;;;10.80;99.90;;;;;;5000900;28;20202;-96
2021/10/21 06:17:44;;;;;;;3.47;1.30;;;10.90;99.90;;;;;;4985033;28;20309;-96
2021/10/21 06:20:16;;;;;;;1.10;0.90;;;10.90;99.90;;;;;;5007983;28;20208;-95
2021/10/21 06:22:48;;;;;;;3.40;1.10;;;10.90;99.90;;;;;;5003493;28;20230;-94
2021/10/21 06:25:25;;;;;;;1.30;0.90;;;10.80;99.90;;;;;;5019127;28;20210;-93
2021/10/21 06:27:56;;;;;;;3.67;1.37;;;10.90;99.90;;;;;;5019508;28;20244;-94
2021/10/21 06:30:27;;;;;;;2.10;1.10;;;10.90;99.90;;;;;;5024628;28;20200;-94
2021/10/21 06:32:59;;;;;;;1.63;1.10;;;10.90;99.90;;;;;;5028468;28;20201;-95
2021/10/21 06:35:33;;;;;;;2.73;1.20;;;10.90;99.90;;;;;;5018448;28;20209;-95
2021/10/21 06:38:21;;;;;;;3.13;1.13;;;10.90;99.90;;;;;;5020510;28;20213;-95
2021/10/21 06:40:55;;;;;;;1.70;1.60;;;10.90;99.90;;;;;;5020675;28;20244;-95
2021/10/21 06:43:27;;;;;;;2.10;1.17;;;10.80;99.90;;;;;;5002634;28;20244;-94
2021/10/21 06:46:00;;;;;;;3.20;1.40;;;10.80;99.90;;;;;;5002547;28;20239;-94
2021/10/21 06:48:32;;;;;;;2.07;1.20;;;10.80;99.90;;;;;;5019600;28;20228;-96
2021/10/21 06:51:04;;;;;;;2.27;1.30;;;10.80;99.90;;;;;;5002855;28;20264;-96
2021/10/21 06:53:36;;;;;;;2.63;1.37;;;10.80;99.90;;;;;;5019248;28;20229;-96
2021/10/21 06:56:11;;;;;;;4.27;1.37;;;10.70;99.90;;;;;;5018473;28;20210;-96
2021/10/21 06:58:43;;;;;;;2.20;1.20;;;10.70;99.90;;;;;;5018799;28;20209;-96
2021/10/21 07:01:15;;;;;;;5.80;1.30;;;10.60;99.90;;;;;;5018570;28;20494;-96
2021/10/21 07:03:46;;;;;;;2.73;1.10;;;10.60;99.90;;;;;;5001848;28;20213;-96
2021/10/21 07:06:19;;;;;;;1.70;1.20;;;10.50;99.90;;;;;;5018704;28;20233;-96
2021/10/21 07:08:50;;;;;;;2.33;1.10;;;10.50;99.90;;;;;;5019084;28;20240;-96
2021/10/21 07:11:23;;;;;;;2.53;1.47;;;10.40;99.90;;;;;;5018492;28;20205;-95
2021/10/21 07:13:55;;;;;;;1.60;1.10;;;10.30;99.90;;;;;;5018519;28;20217;-96
2021/10/21 07:16:30;;;;;;;1.80;1.03;;;10.30;99.90;;;;;;5016860;28;20202;-96
2021/10/21 07:19:02;;;;;;;2.47;0.80;;;10.30;99.90;;;;;;4998375;28;20679;-96
2021/10/21 07:21:34;;;;;;;4.10;1.33;;;10.30;99.90;;;;;;4998296;28;20230;-95
2021/10/21 07:24:08;;;;;;;3.87;1.20;;;10.30;99.90;;;;;;4998602;28;20249;-94
2021/10/21 07:26:42;;;;;;;3.63;1.20;;;10.30;99.90;;;;;;4998016;28;20321;-95
2021/10/21 07:29:14;;;;;;;2.13;1.10;;;10.20;99.90;;;;;;4999562;28;20284;-96
2021/10/21 07:31:47;;;;;;;1.17;0.93;;;10.20;99.90;;;;;;4983791;28;20320;-95
2021/10/21 07:34:22;;;;;;;2.23;1.20;;;10.10;99.90;;;;;;5012714;28;20204;-96
2021/10/21 07:36:58;;;;;;;2.03;1.20;;;10.10;99.90;;;;;;5016101;28;20197;-96
2021/10/21 07:39:29;;;;;;;3.07;1.20;;;10.10;99.90;;;;;;5015312;28;20337;-95
2021/10/21 07:42:03;;;;;;;1.70;1.13;;;10.10;99.90;;;;;;5020096;28;20356;-96
2021/10/21 07:44:35;;;;;;;2.10;1.10;;;10.10;99.90;;;;;;5020659;28;20213;-94
2021/10/21 07:47:08;;;;;;;2.83;1.30;;;10.00;99.90;;;;;;5022100;28;20221;-96
2021/10/21 07:49:40;;;;;;;2.80;1.20;;;10.00;99.90;;;;;;5018517;28;20235;-96
2021/10/21 07:52:13;;;;;;;1.63;1.17;;;10.00;99.90;;;;;;5017879;28;20276;-96
2021/10/21 07:54:45;;;;;;;3.40;1.17;;;9.90;99.90;;;;;;5018734;28;20209;-96
2021/10/21 07:57:20;;;;;;;3.20;1.47;;;9.90;99.90;;;;;;5018581;28;20664;-96
2021/10/21 07:59:52;;;;;;;1.50;1.20;;;9.80;99.90;;;;;;5017878;28;20236;-96
2021/10/21 08:02:24;;;;;;;2.83;1.53;;;9.80;99.90;;;;;;5020558;28;20284;-96
2021/10/21 08:04:56;;;;;;;3.33;1.40;;;9.90;99.90;;;;;;5020559;28;20235;-96
2021/10/21 08:07:28;;;;;;;3.00;1.27;;;9.90;99.90;;;;;;5021107;28;20213;-96
2021/10/21 08:10:00;;;;;;;1.57;1.17;;;10.00;99.90;;;;;;5021251;28;20217;-96
2021/10/21 08:12:33;;;;;;;1.93;1.47;;;10.10;99.90;;;;;;5021068;28;20532;-96
2021/10/21 08:17:54;;;;;;;3.23;1.10;;;10.10;99.90;;;;;;5030126;28;20209;-96
2021/10/21 08:20:27;;;;;;;1.90;0.90;;;10.10;99.90;;;;;;5021008;28;20213;-96
2021/10/21 08:23:03;;;;;;;1.40;1.00;;;10.10;99.90;;;;;;5020722;28;20237;-96
2021/10/21 08:25:34;;;;;;;2.10;1.10;;;10.10;99.90;;;;;;5019911;28;20206;-95
2021/10/21 08:28:14;;;;;;;3.10;1.50;;;10.10;99.90;;;;;;5020824;28;20267;-95
2021/10/21 08:30:45;;;;;;;4.43;1.07;;;10.10;99.90;;;;;;5020604;28;20218;-96
2021/10/21 08:33:18;;;;;;;2.50;1.00;;;10.10;99.90;;;;;;5021103;28;20217;-96
2021/10/21 08:35:49;;;;;;;1.67;0.90;;;10.10;99.90;;;;;;5018945;28;20236;-95
2021/10/21 08:38:21;;;;;;;2.13;0.90;;;10.10;99.90;;;;;;5018935;28;20293;-96
2021/10/21 08:40:53;;;;;;;2.63;0.93;;;10.00;99.90;;;;;;5019015;28;20210;-96
2021/10/21 08:43:26;;;;;;;2.80;0.90;;;10.10;99.90;;;;;;5019276;28;20264;-95
2021/10/21 08:45:57;;;;;;;4.23;1.10;;;10.10;99.90;;;;;;5019889;28;20660;-95
2021/10/21 08:48:32;;;;;;;1.13;0.90;;;10.00;99.90;;;;;;5002814;28;20230;-95
2021/10/21 08:51:05;;;;;;;1.60;1.00;;;10.00;99.90;;;;;;5000631;28;20281;-95
2021/10/21 08:53:37;;;;;;;3.03;1.03;;;10.10;99.90;;;;;;5000745;28;20209;-96
2021/10/21 08:56:09;;;;;;;2.07;0.90;;;10.10;99.90;;;;;;5000131;28;20218;-96
2021/10/21 08:58:43;;;;;;;3.67;1.60;;;10.10;99.90;;;;;;5000605;28;20238;-96
2021/10/21 09:01:19;;;;;;;3.40;1.20;;;10.10;99.90;;;;;;5001085;28;20225;-96
2021/10/21 09:04:15;;;;;;;2.77;1.00;;;10.10;99.90;;;;;;5003625;28;20248;-96
2021/10/21 09:07:55;;;;;;;1.43;1.00;;;10.00;99.90;;;;;;4997345;28;20273;-96
2021/10/21 09:09:47;;;;;;;2.77;0.97;;;10.00;99.90;;;;;;5001659;28;20214;-96
2021/10/21 09:12:21;;;;;;;2.57;1.30;;;10.00;99.90;;;;;;5000343;28;20613;-96
2021/10/21 09:14:54;;;;;;;2.60;1.27;;;10.10;99.90;;;;;;5000868;28;20220;-96
2021/10/21 09:17:29;;;;;;;5.27;1.17;;;10.00;99.90;;;;;;5009152;28;20218;-96
2021/10/21 09:20:00;;;;;;;1.77;1.20;;;10.10;99.90;;;;;;5020356;28;20209;-95
2021/10/21 09:25:09;;;;;;;2.70;1.23;;;10.20;99.90;;;;;;4980740;28;20219;-95
2021/10/21 09:27:45;;;;;;;1.67;1.17;;;10.20;99.90;;;;;;4981285;28;20226;-95
2021/10/21 09:30:25;;;;;;;2.30;1.00;;;10.30;99.90;;;;;;4980879;28;20573;-95
2021/10/21 09:33:03;;;;;;;3.17;1.40;;;10.40;99.90;;;;;;4980860;28;20245;-95
2021/10/21 09:35:37;;;;;;;1.73;1.23;;;10.40;99.90;;;;;;4980415;28;20243;-95
2021/10/21 09:38:20;;;;;;;2.93;1.30;;;10.50;99.90;;;;;;4981367;28;20210;-95
2021/10/21 09:40:52;;;;;;;4.03;1.23;;;10.50;99.90;;;;;;4982798;28;20238;-95
2021/10/21 09:43:33;;;;;;;1.97;1.30;;;10.50;99.90;;;;;;4988605;28;20246;-95
2021/10/21 09:46:06;;;;;;;1.80;1.00;;;10.50;99.90;;;;;;4998174;28;20198;-94
2021/10/21 09:48:38;;;;;;;2.97;1.43;;;10.50;99.90;;;;;;4998972;28;20202;-95
2021/10/21 09:51:09;;;;;;;1.57;1.00;;;10.50;99.90;;;;;;4986021;28;20225;-95
2021/10/21 09:53:41;;;;;;;2.30;1.03;;;10.50;99.90;;;;;;4987679;28;20231;-96
2021/10/21 09:56:14;;;;;;;3.43;1.33;;;10.50;99.90;;;;;;4985719;28;20215;-96
2021/10/21 09:58:47;;;;;;;1.77;1.13;;;10.50;99.90;;;;;;4992182;28;20242;-96
2021/10/21 10:01:20;;;;;;;1.20;1.00;;;10.50;99.90;;;;;;4977523;28;20211;-96
2021/10/21 10:03:53;;;;;;;2.53;1.17;;;10.60;99.90;;;;;;4973218;28;20266;-96
2021/10/21 10:06:24;;;;;;;2.27;1.33;;;10.50;99.90;;;;;;4977381;28;20242;-95
2021/10/21 10:08:57;;;;;;;1.80;1.00;;;10.50;99.90;;;;;;4979212;28;20219;-96
2021/10/21 10:11:28;;;;;;;1.90;0.90;;;10.50;99.90;;;;;;4979033;28;20203;-95
2021/10/21 10:14:00;;;;;;;3.43;1.33;;;10.50;99.90;;;;;;4979011;28;20219;-96
2021/10/21 10:16:34;;;;;;;3.67;1.20;;;10.60;99.90;;;;;;4978839;28;20196;-96
2021/10/21 10:19:07;;;;;;;2.30;1.13;;;10.60;99.90;;;;;;4966438;28;20219;-96
2021/10/21 10:21:39;;;;;;;3.97;1.40;;;10.60;99.90;;;;;;4944004;29;20573;-96
2021/10/21 10:24:13;;;;;;;1.53;1.10;;;10.60;99.90;;;;;;4959114;28;20239;-95
2021/10/21 10:26:45;;;;;;;1.80;1.00;;;10.60;99.90;;;;;;4958894;28;20216;-92
2021/10/21 10:29:20;;;;;;;1.10;1.00;;;10.70;99.90;;;;;;4959458;29;20215;-95
2021/10/21 10:31:58;;;;;;;5.23;1.17;;;10.70;99.90;;;;;;4959506;29;20222;-95
2021/10/21 10:34:55;;;;;;;1.60;1.20;;;10.70;99.90;;;;;;4959493;28;20662;-94
2021/10/21 10:37:48;;;;;;;1.90;1.53;;;10.70;99.90;;;;;;4959147;29;20565;-95
2021/10/21 10:40:42;;;;;;;1.20;1.00;;;10.70;99.90;;;;;;4959615;28;20282;-95
2021/10/21 10:43:16;;;;;;;1.80;0.90;;;10.60;99.90;;;;;;4958996;29;20287;-96
2021/10/21 10:46:06;;;;;;;5.40;1.03;;;10.60;99.90;;;;;;4960593;28;20682;-94
2021/10/21 10:48:55;;;;;;;1.60;1.20;;;10.50;99.90;;;;;;4979286;28;20219;-95
2021/10/21 10:52:00;;;;;;;2.90;1.10;;;10.50;99.90;;;;;;4988353;28;20198;-95
2021/10/21 10:55:04;;;;;;;1.67;0.97;;;10.40;99.90;;;;;;4997606;28;20195;-96
2021/10/21 10:57:56;;;;;;;1.70;0.90;;;10.40;99.90;;;;;;4936799;29;20201;-96
2021/10/21 11:00:48;;;;;;;0.87;0.80;;;10.30;99.90;;;;;;4996553;28;20215;-96
2021/10/21 11:03:38;;;;;;;1.70;0.97;;;10.40;99.90;;;;;;4988254;28;20239;-96
2021/10/21 11:06:13;;;;;;;1.97;1.03;;;10.40;99.90;;;;;;4978091;28;20645;-96
2021/10/21 11:09:03;;;;;;;1.73;0.80;;;10.50;99.90;;;;;;4981307;28;20206;-96
2021/10/21 11:12:01;;;;;;;4.03;1.30;;;10.50;99.90;;;;;;4979825;28;20203;-96
2021/10/21 11:14:39;;;;;;;4.90;1.10;;;10.60;99.90;;;;;;4977640;28;20222;-96
2021/10/21 11:17:14;;;;;;;2.03;0.90;;;10.70;99.90;;;;;;4978106;28;20229;-96
2021/10/21 11:19:52;;;;;;;1.67;1.13;;;10.70;99.90;;;;;;4979016;28;20265;-96
2021/10/21 11:22:41;;;;;;;3.00;1.20;;;10.80;99.90;;;;;;4978520;28;20278;-96
2021/10/21 11:25:16;;;;;;;1.87;1.23;;;10.90;99.90;;;;;;4981130;28;20211;-94
2021/10/21 11:27:52;;;;;;;1.10;1.00;;;11.00;99.90;;;;;;4978219;28;20218;-95
2021/10/21 11:30:24;;;;;;;1.80;1.10;;;11.10;99.90;;;;;;4978859;28;20218;-96
2021/10/21 11:33:12;;;;;;;2.00;0.97;;;11.20;99.90;;;;;;4978392;28;20314;-94
2021/10/21 11:35:44;;;;;;;1.47;0.90;;;11.30;99.90;;;;;;4979521;28;20242;-95
2021/10/21 11:38:19;;;;;;;1.77;0.90;;;11.30;99.90;;;;;;4982435;28;20215;-95
2021/10/21 11:40:55;;;;;;;2.20;0.97;;;11.20;99.90;;;;;;4982302;28;20218;-95
2021/10/21 11:43:36;;;;;;;1.50;1.00;;;11.30;99.90;;;;;;4981358;28;20321;-96
2021/10/21 11:46:09;;;;;;;2.03;1.00;;;11.30;99.90;;;;;;4981825;28;20222;-96
2021/10/21 11:48:42;;;;;;;2.00;1.07;;;11.40;99.90;;;;;;4982514;28;20211;-95
2021/10/21 11:51:16;;;;;;;2.67;1.03;;;11.40;99.90;;;;;;4981274;28;20241;-94
2021/10/21 11:53:52;;;;;;;1.90;1.07;;;11.40;99.90;;;;;;4981632;28;20211;-95
2021/10/21 11:56:24;;;;;;;1.10;0.90;;;11.40;99.90;;;;;;4994112;28;20222;-96
2021/10/21 11:59:00;;;;;;;1.57;1.10;;;11.70;99.90;;;;;;5000787;28;20191;-96
2021/10/21 12:01:32;;;;;;;1.67;1.00;;;11.80;99.90;;;;;;4998399;28;20215;-96
2021/10/21 12:04:06;;;;;;;1.07;0.93;;;11.80;99.90;;;;;;4988252;28;20238;-96
2021/10/21 12:06:42;;;;;;;1.77;1.00;;;11.80;99.90;;;;;;4983647;28;20256;-96
2021/10/21 12:09:20;;;;;;;4.40;1.07;;;11.90;99.90;;;;;;4982807;28;20203;-95
2021/10/21 12:12:02;;;;;;;2.03;0.97;;;11.90;99.90;;;;;;4982970;28;20242;-95
2021/10/21 12:14:36;;;;;;;1.63;0.90;;;12.00;99.90;;;;;;4981844;28;20211;-96
2021/10/21 12:17:07;;;;;;;1.70;0.87;;;12.00;99.90;;;;;;4983624;28;20219;-95
2021/10/21 12:19:42;;;;;;;2.37;1.00;;;12.10;99.90;;;;;;4983996;28;20210;-96
2021/10/21 12:22:17;;;;;;;1.43;0.70;;;12.10;99.90;;;;;;4982775;28;20238;-96
2021/10/21 12:24:52;;;;;;;2.53;1.10;;;12.10;99.90;;;;;;4982251;28;20310;-95
2021/10/21 12:27:25;;;;;;;2.57;1.00;;;12.20;99.90;;;;;;4981964;28;20203;-95
2021/10/21 12:30:03;;;;;;;1.50;1.07;;;12.20;99.90;;;;;;4982442;28;20223;-95
2021/10/21 12:32:35;;;;;;;2.63;1.00;;;12.20;99.90;;;;;;4982267;28;20234;-95
2021/10/21 12:35:09;;;;;;;0.70;0.70;;;12.20;99.90;;;;;;4981587;28;20222;-96
2021/10/21 12:37:43;;;;;;;3.83;1.00;;;12.30;99.90;;;;;;4982091;28;20203;-96
2021/10/21 12:40:21;;;;;;;1.67;1.00;;;12.30;99.90;;;;;;4981448;28;20623;-95
2021/10/21 12:42:53;;;;;;;2.07;0.80;;;12.40;99.90;;;;;;4980323;28;20306;-94
2021/10/21 12:45:25;;;;;;;1.77;0.90;;;12.40;99.90;;;;;;4982867;28;20235;-95
2021/10/21 12:47:58;;;;;;;3.80;1.10;;;12.40;99.90;;;;;;4980037;28;20237;-95
2021/10/21 12:50:31;;;;;;;1.00;0.70;;;12.40;99.90;;;;;;4981105;28;20298;-95
2021/10/21 12:53:02;;;;;;;1.93;0.93;;;12.40;99.90;;;;;;4980946;28;20247;-95
2021/10/21 12:55:37;;;;;;;1.77;1.00;;;12.50;99.90;;;;;;4980496;28;20199;-95
2021/10/21 12:58:09;;;;;;;1.90;1.00;;;12.50;99.90;;;;;;4980948;28;20265;-96
2021/10/21 13:00:44;;;;;;;2.67;0.80;;;12.50;99.90;;;;;;4981463;28;20214;-95
2021/10/21 13:03:18;;;;;;;2.67;1.20;;;12.60;99.90;;;;;;4980322;28;20279;-94
2021/10/21 13:05:51;;;;;;;1.53;0.73;;;12.60;99.90;;;;;;4979824;28;20273;-95
2021/10/21 13:08:23;;;;;;;0.80;0.80;;;12.70;99.90;;;;;;4981425;28;20211;-96
2021/10/21 13:10:57;;;;;;;1.80;0.80;;;12.80;99.90;;;;;;4980880;28;20274;-96
2021/10/21 13:13:30;;;;;;;2.10;1.03;;;12.90;99.90;;;;;;4980237;28;20242;-96
2021/10/21 13:16:04;;;;;;;1.10;1.00;;;12.90;99.90;;;;;;4980212;28;20214;-96
2021/10/21 13:18:38;;;;;;;2.50;1.03;;;12.90;99.90;;;;;;4961877;28;20247;-96
2021/10/21 13:21:09;;;;;;;0.70;0.70;;;13.10;99.90;;;;;;4961918;28;20324;-96
2021/10/21 13:23:41;;;;;;;1.20;0.90;;;13.10;99.90;;;;;;4961862;29;20230;-96
2021/10/21 13:26:16;;;;;;;3.03;1.23;;;13.00;99.90;;;;;;4959478;28;20219;-95
2021/10/21 13:28:49;;;;;;;1.13;1.00;;;13.00;99.90;;;;;;4962067;28;20638;-95
2021/10/21 13:31:23;;;;;;;1.07;0.90;;;13.00;99.90;;;;;;4961990;29;20541;-95
2021/10/21 13:33:56;;;;;;;3.00;1.00;;;13.10;99.90;;;;;;4961294;29;20506;-96
2021/10/21 13:36:29;;;;;;;1.43;1.10;;;13.00;99.90;;;;;;4960379;29;20511;-95
2021/10/21 13:39:01;;;;;;;1.93;1.00;;;13.00;99.90;;;;;;4960878;28;20243;-95
2021/10/21 13:41:34;;;;;;;1.53;0.87;;;13.10;99.90;;;;;;4970975;28;20222;-95
2021/10/21 13:44:09;;;;;;;1.47;0.90;;;13.20;99.90;;;;;;4981037;28;20243;-95
2021/10/21 13:46:41;;;;;;;1.30;0.97;;;13.30;99.90;;;;;;4979378;28;20226;-95
2021/10/21 13:49:14;;;;;;;3.40;1.07;;;13.20;99.90;;;;;;4979700;28;20681;-96
2021/10/21 13:51:46;;;;;;;2.47;1.30;;;13.20;99.90;;;;;;4980676;28;20226;-94
2021/10/21 13:54:17;;;;;;;3.50;0.90;;;13.20;99.90;;;;;;4980400;28;20245;-94
2021/10/21 13:56:52;;;;;;;2.43;1.10;;;13.30;99.90;;;;;;4982143;28;20604;-95
2021/10/21 13:59:24;;;;;;;1.43;0.90;;;13.30;99.90;;;;;;4980477;28;20281;-95
2021/10/21 14:01:56;;;;;;;1.37;1.00;;;13.30;99.90;;;;;;4981274;28;20211;-95
2021/10/21 14:04:28;;;;;;;2.07;1.10;;;13.40;99.90;;;;;;4980085;28;20600;-94
2021/10/21 14:07:01;;;;;;;1.50;0.87;;;13.40;99.90;;;;;;4988407;28;20234;-95
2021/10/21 14:09:34;;;;;;;2.53;1.10;;;13.40;99.90;;;;;;4995863;28;20203;-95
2021/10/21 14:12:09;;;;;;;2.33;1.00;;;13.40;99.90;;;;;;5119954;22;20228;-96
2021/10/21 14:14:40;;;;;;;1.47;0.90;;;13.40;99.90;;;;;;5035538;28;20219;-96
2021/10/21 14:17:14;;;;;;;1.63;1.00;;;13.40;99.90;;;;;;5033482;28;20201;-93
2021/10/21 14:19:45;;;;;;;1.33;1.00;;;13.50;99.90;;;;;;5000001;28;20212;-93
2021/10/21 14:22:21;;;;;;;2.03;1.00;;;13.40;99.90;;;;;;5022398;28;20211;-96
2021/10/21 14:31:21;;;;;;;3.17;1.00;;;13.50;99.90;;;;;;5026056;28;20198;-95
2021/10/21 14:33:54;;;;;;;1.90;1.00;;;13.50;99.90;;;;;;5031536;28;20201;-95
2021/10/21 14:36:25;;;;;;;3.27;1.03;;;13.50;99.90;;;;;;5033648;28;20205;-95
2021/10/21 14:39:00;;;;;;;1.97;0.90;;;13.50;99.90;;;;;;5028599;28;20608;-96
2021/10/21 14:41:32;;;;;;;1.07;0.97;;;13.50;99.90;;;;;;5017837;28;20209;-96
2021/10/21 14:44:04;;;;;;;2.33;1.43;;;13.50;99.90;;;;;;5019062;28;20209;-95
2021/10/21 14:46:38;;;;;;;1.57;0.90;;;13.40;99.90;;;;;;5018264;28;20235;-96
2021/10/21 14:49:11;;;;;;;1.67;0.90;;;13.50;99.90;;;;;;5004092;28;20206;-96
2021/10/21 14:51:44;;;;;;;1.93;0.90;;;13.50;99.90;;;;;;5021605;28;20209;-96